Time;durP1;ratioP1;P1;durP2;ratioP2;P2;SDS_P1;SDS_P2;PMS_P1;PMS_P2;Temp;Humidity;BMP_temperature;BMP_pressure;BME280_temperature;BME280_humidity;BME280_pressure;Samples;Min_cycle;Max_cycle;Signal;HPM_P1;HPM_P2
2023/09/14 00:01:14;;;;;;;2.83;1.30;;;;;;;23.03;45.88;99087.56;5056985;28;20173;-86
2023/09/14 00:03:39;;;;;;;3.60;1.70;;;;;;;23.05;45.78;99082.03;5074858;28;20204;-85
2023/09/14 00:06:06;;;;;;;6.03;1.80;;;;;;;23.08;45.78;99085.25;5057314;28;20268;-85
2023/09/14 00:08:34;;;;;;;8.53;1.77;;;;;;;23.13;45.74;99084.75;5056960;28;20181;-86
2023/09/14 00:11:03;;;;;;;3.87;1.90;;;;;;;23.07;45.75;99086.25;5074986;28;20188;-85
2023/09/14 00:13:30;;;;;;;3.60;1.90;;;;;;;23.00;46.02;99084.38;5073525;28;20267;-85
2023/09/14 00:15:57;;;;;;;2.70;1.50;;;;;;;22.98;46.11;99094.41;5075407;28;20672;-85
2023/09/14 00:18:22;;;;;;;6.73;2.40;;;;;;;22.95;45.71;99092.88;5075114;28;20224;-85
2023/09/14 00:20:48;;;;;;;5.63;1.93;;;;;;;22.88;46.42;99083.78;5074839;28;20204;-85
2023/09/14 00:23:14;;;;;;;3.63;1.83;;;;;;;22.82;46.62;99089.81;5074713;28;20201;-86
2023/09/14 00:25:39;;;;;;;3.97;1.57;;;;;;;22.79;46.71;99086.59;5074519;28;20271;-86
2023/09/14 00:28:05;;;;;;;3.33;1.70;;;;;;;22.68;47.25;99081.53;5056952;28;20614;-85
2023/09/14 00:30:31;;;;;;;5.70;2.03;;;;;;;22.62;47.07;99083.84;5056723;28;20189;-86
2023/09/14 00:32:57;;;;;;;4.03;1.80;;;;;;;22.59;47.67;99084.09;5074560;28;20538;-86
2023/09/14 00:35:24;;;;;;;6.37;1.90;;;;;;;22.59;47.57;99078.75;5074641;28;20177;-86
2023/09/14 00:37:50;;;;;;;5.80;1.97;;;;;;;22.57;47.81;99080.75;5074656;28;20169;-85
2023/09/14 00:40:18;;;;;;;3.60;1.30;;;;;;;22.53;47.60;99076.75;5057206;28;20205;-85
2023/09/14 00:42:47;;;;;;;3.63;1.70;;;;;;;22.47;47.67;99080.03;5073862;28;20185;-85
2023/09/14 00:45:16;;;;;;;5.77;2.13;;;;;;;22.44;47.56;99075.00;5074273;28;20201;-86
2023/09/14 00:47:45;;;;;;;10.30;1.90;;;;;;;22.38;47.91;99074.81;5056353;28;20239;-85
2023/09/14 00:50:15;;;;;;;6.33;1.57;;;;;;;22.38;48.07;99072.13;5074767;28;20599;-85
2023/09/14 00:52:44;;;;;;;6.33;1.63;;;;;;;22.34;47.85;99057.41;5074397;28;20165;-85
2023/09/14 00:55:15;;;;;;;4.17;1.50;;;;;;;22.28;48.45;99064.19;5073935;28;20716;-85
2023/09/14 00:57:42;;;;;;;5.67;2.20;;;;;;;22.23;48.23;99066.50;5074388;28;20183;-85
2023/09/14 01:00:12;;;;;;;5.03;1.83;;;;;;;22.24;48.26;99067.34;5056401;28;20176;-85
2023/09/14 01:02:40;;;;;;;3.47;1.73;;;;;;;22.23;48.81;99066.50;5073753;28;20215;-85
2023/09/14 01:05:07;;;;;;;3.73;1.70;;;;;;;22.22;48.57;99064.81;5073581;28;20217;-85
2023/09/14 01:07:34;;;;;;;3.70;1.73;;;;;;;22.22;48.71;99064.81;5056013;28;20177;-85
2023/09/14 01:10:01;;;;;;;8.53;2.20;;;;;;;22.24;48.42;99070.03;5057048;28;20208;-85
2023/09/14 01:12:28;;;;;;;5.43;2.23;;;;;;;22.20;47.90;99072.16;5073334;28;20596;-85
2023/09/14 01:15:05;;;;;;;6.57;2.50;;;;;;;22.10;48.38;99082.09;5073711;28;20607;-85
2023/09/14 01:18:11;;;;;;;5.97;2.13;;;;;;;22.06;48.45;99082.56;5073490;28;20646;-85
2023/09/14 01:21:10;;;;;;;4.07;2.00;;;;;;;22.07;48.18;99082.38;5073314;28;20181;-85
2023/09/14 01:24:26;;;;;;;6.53;2.13;;;;;;;21.97;48.86;99081.63;5055555;28;20608;-86
2023/09/14 01:26:55;;;;;;;6.20;1.97;;;;;;;21.99;48.79;99080.50;5018227;28;20622;-85
2023/09/14 01:29:21;;;;;;;4.37;2.10;;;;;;;22.02;48.63;99090.88;5073444;28;20630;-86
2023/09/14 01:31:47;;;;;;;8.37;2.50;;;;;;;21.86;49.30;99085.38;5073218;28;20649;-85
2023/09/14 01:34:17;;;;;;;4.40;1.90;;;;;;;21.85;49.43;99091.69;5055799;28;20260;-85
2023/09/14 01:36:48;;;;;;;7.60;2.20;;;;;;;21.87;49.43;99096.91;5073356;28;20173;-85
2023/09/14 01:39:13;;;;;;;5.77;2.50;;;;;;;21.81;49.79;99097.47;5072950;28;20176;-86
2023/09/14 01:41:41;;;;;;;5.50;2.10;;;;;;;21.75;50.47;99092.75;5073410;28;20173;-86
2023/09/14 01:44:09;;;;;;;7.57;2.40;;;;;;;21.70;50.70;99090.53;5073199;28;20193;-85
2023/09/14 01:46:36;;;;;;;5.20;1.93;;;;;;;21.70;50.60;99089.69;5055467;28;20192;-85
2023/09/14 01:49:02;;;;;;;8.50;2.27;;;;;;;21.63;50.95;99077.94;5072872;28;20232;-85
2023/09/14 01:51:29;;;;;;;7.83;2.60;;;;;;;21.64;50.93;99079.63;5073565;28;20185;-85
2023/09/14 01:53:55;;;;;;;6.93;2.20;;;;;;;21.60;51.74;99075.59;5055484;28;20185;-85
2023/09/14 01:56:22;;;;;;;4.73;2.37;;;;;;;21.57;51.42;99073.22;5072907;28;20267;-86
2023/09/14 01:58:48;;;;;;;8.70;2.40;;;;;;;21.55;51.68;99075.19;5073108;28;20169;-85
2023/09/14 02:01:14;;;;;;;4.13;1.70;;;;;;;21.60;51.63;99080.91;5055052;28;20185;-85
2023/09/14 02:03:40;;;;;;;5.93;2.27;;;;;;;21.60;51.58;99078.25;5073180;28;20254;-85
2023/09/14 02:06:07;;;;;;;6.47;2.33;;;;;;;21.55;51.72;99075.19;5073052;28;20173;-85
2023/09/14 02:08:35;;;;;;;4.23;2.27;;;;;;;21.51;51.86;99077.34;5072890;28;20188;-85
2023/09/14 02:11:03;;;;;;;4.67;2.13;;;;;;;21.40;52.31;99077.56;5073506;28;20172;-85
2023/09/14 02:13:29;;;;;;;5.43;2.30;;;;;;;21.40;52.19;99072.22;5073193;28;20173;-85
2023/09/14 02:15:55;;;;;;;4.93;2.33;;;;;;;21.40;52.31;99070.41;5058650;28;20192;-85
2023/09/14 02:18:22;;;;;;;6.60;2.23;;;;;;;21.44;52.08;99074.44;5053124;28;20252;-85
2023/09/14 02:20:47;;;;;;;9.33;3.37;;;;;;;21.33;52.46;99074.63;5054245;28;20174;-85
2023/09/14 02:23:16;;;;;;;5.47;2.30;;;;;;;21.20;53.64;99074.16;5072724;28;20201;-85
2023/09/14 02:25:45;;;;;;;3.67;2.00;;;;;;;21.18;53.55;99078.81;5054946;28;20189;-85
2023/09/14 02:28:13;;;;;;;4.27;2.00;;;;;;;21.22;53.37;99085.53;5072785;28;20189;-86
2023/09/14 02:30:40;;;;;;;5.27;2.20;;;;;;;21.35;52.97;99086.00;5072860;28;20273;-85
2023/09/14 02:33:09;;;;;;;5.53;2.47;;;;;;;21.24;53.18;99082.69;5055107;28;20177;-85
2023/09/14 02:35:36;;;;;;;4.47;2.10;;;;;;;21.11;53.98;99083.06;5073523;28;20195;-85
2023/09/14 02:38:05;;;;;;;3.63;1.93;;;;;;;21.08;54.29;99094.00;5076980;28;20173;-85
2023/09/14 02:40:33;;;;;;;7.20;2.23;;;;;;;21.07;54.62;99094.16;5076339;28;20547;-86
2023/09/14 02:42:58;;;;;;;5.77;2.03;;;;;;;21.05;54.75;99094.28;5076829;28;20265;-85
2023/09/14 02:45:24;;;;;;;8.37;2.33;;;;;;;21.04;54.82;99089.91;5076422;28;20229;-85
2023/09/14 02:47:50;;;;;;;5.97;2.17;;;;;;;21.00;54.78;99090.34;5058923;28;20257;-85
2023/09/14 02:50:17;;;;;;;5.20;2.13;;;;;;;20.97;54.95;99099.50;5058843;28;20189;-85
2023/09/14 02:52:43;;;;;;;4.40;2.07;;;;;;;20.90;55.00;99094.91;5076205;28;20192;-86
2023/09/14 02:55:09;;;;;;;3.93;2.13;;;;;;;20.91;55.04;99101.91;5076436;28;20652;-86
2023/09/14 02:57:35;;;;;;;5.83;2.90;;;;;;;20.88;54.77;99097.72;5076318;28;20180;-85
2023/09/14 03:00:01;;;;;;;8.30;2.20;;;;;;;20.89;54.57;99109.19;5076237;28;20180;-86
2023/09/14 03:02:28;;;;;;;5.43;2.50;;;;;;;20.88;54.35;99111.03;5075945;28;20266;-85
2023/09/14 03:04:53;;;;;;;4.00;2.20;;;;;;;20.86;54.52;99114.84;5058069;28;20193;-85
2023/09/14 03:07:20;;;;;;;5.57;2.63;;;;;;;20.81;54.35;99107.25;5076342;28;20234;-85
2023/09/14 03:09:47;;;;;;;6.93;2.80;;;;;;;20.77;54.31;99103.22;5058335;28;20181;-85
2023/09/14 03:12:13;;;;;;;3.83;1.90;;;;;;;20.69;53.96;99103.09;5076073;28;20704;-86
2023/09/14 03:14:40;;;;;;;5.30;2.60;;;;;;;20.64;53.92;99103.56;5075996;28;20259;-85
2023/09/14 03:17:05;;;;;;;4.97;2.03;;;;;;;20.60;54.18;99104.81;5075392;28;20242;-86
2023/09/14 03:19:32;;;;;;;5.37;2.63;;;;;;;20.59;54.11;99104.97;5075874;28;20181;-85
2023/09/14 03:21:57;;;;;;;5.93;2.00;;;;;;;20.54;54.06;99102.75;5075770;28;20187;-85
2023/09/14 03:24:24;;;;;;;6.77;2.17;;;;;;;20.49;54.13;99106.81;5075592;28;20197;-85
2023/09/14 03:26:51;;;;;;;9.87;2.80;;;;;;;20.43;54.05;99105.56;5075732;28;20204;-85
2023/09/14 03:29:17;;;;;;;4.70;2.07;;;;;;;20.41;53.76;99104.88;5076059;28;20187;-85
2023/09/14 03:31:44;;;;;;;6.60;1.97;;;;;;;20.45;53.37;99121.38;5057927;28;20541;-85
2023/09/14 03:34:10;;;;;;;7.73;2.47;;;;;;;20.46;53.14;99112.44;5057606;28;20241;-85
2023/09/14 03:36:37;;;;;;;4.00;2.10;;;;;;;20.34;53.24;99106.41;5057958;28;20181;-85
2023/09/14 03:39:04;;;;;;;6.63;2.57;;;;;;;20.34;53.03;99113.53;5076102;28;20181;-85
2023/09/14 03:41:31;;;;;;;5.60;2.60;;;;;;;20.32;52.58;99110.19;5075351;28;20225;-85
2023/09/14 03:43:57;;;;;;;5.63;2.70;;;;;;;20.32;51.79;99110.19;5057779;28;20207;-85
2023/09/14 03:46:23;;;;;;;6.97;2.57;;;;;;;20.31;51.77;99109.34;5057482;28;20173;-86
2023/09/14 03:48:48;;;;;;;6.17;2.43;;;;;;;20.31;51.46;99119.19;5075091;28;20235;-85
2023/09/14 03:51:14;;;;;;;9.00;2.60;;;;;;;20.21;52.19;99121.81;5075368;28;20277;-85
2023/09/14 03:53:41;;;;;;;6.20;2.10;;;;;;;20.09;52.40;99118.47;5075128;28;20177;-85
2023/09/14 03:56:08;;;;;;;7.30;2.20;;;;;;;20.02;52.65;99112.00;5075256;28;20180;-85
2023/09/14 03:58:35;;;;;;;9.10;2.53;;;;;;;19.94;53.03;99114.53;5075227;28;20639;-86
2023/09/14 04:01:03;;;;;;;5.93;2.30;;;;;;;19.90;53.57;99120.28;5060015;28;20594;-85
2023/09/14 04:03:29;;;;;;;4.13;2.17;;;;;;;19.93;53.43;99110.19;5058735;28;20209;-85
2023/09/14 04:05:54;;;;;;;5.47;3.03;;;;;;;19.97;53.29;99108.94;5075032;28;20697;-85
2023/09/14 04:08:22;;;;;;;6.80;3.03;;;;;;;20.04;53.37;99112.72;5075284;28;20259;-85
2023/09/14 04:10:51;;;;;;;4.57;2.10;;;;;;;20.04;53.18;99106.56;5057343;28;20189;-85
2023/09/14 04:13:34;;;;;;;10.67;2.50;;;;;;;19.90;54.18;99109.63;5067497;28;20630;-85
2023/09/14 04:16:03;;;;;;;6.40;2.40;;;;;;;19.88;54.57;99112.44;5071250;28;20258;-85
2023/09/14 04:18:38;;;;;;;6.13;2.97;;;;;;;19.88;55.08;99116.91;5072262;28;20170;-85
2023/09/14 04:21:04;;;;;;;7.30;2.37;;;;;;;19.88;55.21;99123.09;5057223;28;20242;-85
2023/09/14 04:23:31;;;;;;;6.30;2.27;;;;;;;19.87;55.41;99123.22;5074248;28;20205;-85
2023/09/14 04:25:57;;;;;;;7.13;2.30;;;;;;;19.88;55.51;99122.25;5074515;28;20184;-85
2023/09/14 04:28:23;;;;;;;7.00;2.53;;;;;;;19.84;55.86;99132.31;5056995;28;20245;-85
2023/09/14 04:30:53;;;;;;;4.97;2.23;;;;;;;19.85;55.72;99131.34;5056667;28;20191;-85
2023/09/14 04:33:20;;;;;;;4.20;2.40;;;;;;;19.84;55.93;99131.47;5074835;28;20252;-85
2023/09/14 04:35:46;;;;;;;4.73;2.13;;;;;;;19.88;55.63;99128.41;5056750;28;20214;-85
2023/09/14 04:38:13;;;;;;;4.53;2.37;;;;;;;19.87;55.53;99132.03;5056765;28;20221;-85
2023/09/14 04:40:43;;;;;;;6.73;2.47;;;;;;;19.94;55.35;99133.16;5056102;28;20185;-85
2023/09/14 04:43:10;;;;;;;5.57;2.40;;;;;;;19.95;55.51;99134.84;5073449;28;20618;-85
2023/09/14 04:45:36;;;;;;;6.30;2.73;;;;;;;20.02;55.32;99133.28;5074253;28;20211;-85
2023/09/14 04:48:02;;;;;;;4.67;2.20;;;;;;;19.98;55.63;99129.25;5073942;28;20223;-85
2023/09/14 04:50:28;;;;;;;4.80;2.40;;;;;;;20.09;55.17;99131.78;5074101;28;20224;-85
2023/09/14 04:52:55;;;;;;;4.77;2.27;;;;;;;20.27;54.56;99117.78;5074403;28;20188;-85
2023/09/14 04:55:22;;;;;;;5.47;2.17;;;;;;;20.26;54.61;99121.44;5073973;28;20192;-85
2023/09/14 04:57:49;;;;;;;3.90;2.37;;;;;;;20.29;54.96;99127.28;5073356;28;20181;-85
2023/09/14 05:00:16;;;;;;;4.37;2.10;;;;;;;20.41;54.76;99115.53;5073704;28;20188;-85
2023/09/14 05:02:41;;;;;;;11.43;2.93;;;;;;;20.52;54.62;99120.66;5073942;28;20177;-85
2023/09/14 05:05:10;;;;;;;6.63;2.67;;;;;;;20.55;55.19;99128.38;5073842;28;20200;-85
2023/09/14 05:07:36;;;;;;;5.10;2.20;;;;;;;20.65;55.23;99129.19;5074071;28;20266;-85
2023/09/14 05:10:02;;;;;;;4.80;2.50;;;;;;;20.84;55.04;99118.47;5073817;28;20262;-85
2023/09/14 05:12:28;;;;;;;10.27;3.10;;;;;;;20.94;56.35;99114.94;5056199;28;20594;-85
2023/09/14 05:14:53;;;;;;;6.17;2.87;;;;;;;20.98;57.18;99111.84;5056230;28;20272;-85
2023/09/14 05:17:20;;;;;;;5.83;3.10;;;;;;;21.26;56.84;99105.56;5056329;28;20263;-85
2023/09/14 05:19:47;;;;;;;8.77;3.10;;;;;;;21.55;56.16;99107.19;5073248;28;20271;-85
2023/09/14 05:22:14;;;;;;;8.30;2.80;;;;;;;21.69;55.99;99104.88;5073850;28;20173;-85
2023/09/14 05:24:40;;;;;;;4.60;2.63;;;;;;;21.84;55.87;99103.34;5073803;28;20280;-85
2023/09/14 05:27:05;;;;;;;11.27;3.73;;;;;;;21.96;55.51;99106.66;5073466;28;20259;-85
2023/09/14 05:29:32;;;;;;;6.33;3.03;;;;;;;22.08;55.28;99113.44;5073445;28;20173;-85
2023/09/14 05:31:59;;;;;;;7.67;3.20;;;;;;;22.19;55.08;99107.88;5073968;28;20660;-85
2023/09/14 05:34:26;;;;;;;6.00;2.80;;;;;;;22.24;55.72;99105.56;5055532;28;20181;-85
2023/09/14 05:36:52;;;;;;;7.70;2.97;;;;;;;22.26;55.89;99105.41;5073885;28;20180;-85
2023/09/14 05:39:19;;;;;;;8.87;3.73;;;;;;;22.42;55.23;99108.19;5073164;28;20227;-85
2023/09/14 05:41:46;;;;;;;6.93;3.47;;;;;;;22.66;54.17;99105.75;5073553;28;20257;-85
2023/09/14 05:44:13;;;;;;;10.60;3.40;;;;;;;22.79;53.26;99107.97;5073081;28;20188;-85
2023/09/14 05:46:40;;;;;;;7.83;3.30;;;;;;;23.01;52.89;99100.25;5073234;28;20196;-85
2023/09/14 05:49:07;;;;;;;13.87;3.87;;;;;;;23.16;52.00;99092.47;5073077;28;20236;-86
2023/09/14 05:51:34;;;;;;;8.03;3.17;;;;;;;23.28;52.60;99093.84;5073721;28;20246;-86
2023/09/14 05:54:00;;;;;;;8.23;3.37;;;;;;;23.55;51.77;99096.31;5072910;28;20521;-85
2023/09/14 05:56:27;;;;;;;10.83;3.53;;;;;;;23.89;50.79;99095.34;5073460;28;20199;-86
2023/09/14 05:58:54;;;;;;;7.93;3.30;;;;;;;24.22;49.82;99102.41;5072971;28;20642;-86
2023/09/14 06:01:20;;;;;;;9.50;3.87;;;;;;;24.58;48.67;99098.34;5055478;28;20186;-86
2023/09/14 06:03:45;;;;;;;6.63;3.60;;;;;;;25.03;47.43;99093.25;5072764;28;20273;-86
2023/09/14 06:06:12;;;;;;;8.23;3.80;;;;;;;25.54;46.11;99099.09;5073044;28;20259;-86
2023/09/14 06:08:38;;;;;;;6.90;3.27;;;;;;;26.12;44.71;99107.47;5072860;28;20224;-86
2023/09/14 06:11:04;;;;;;;7.17;3.40;;;;;;;26.52;43.67;99106.25;5054427;28;20270;-86
2023/09/14 06:13:29;;;;;;;10.30;4.27;;;;;;;26.85;42.90;99106.81;5073279;28;20201;-86
2023/09/14 06:15:56;;;;;;;8.80;3.63;;;;;;;27.28;42.45;99110.53;5055212;28;20642;-86
2023/09/14 06:18:21;;;;;;;9.43;3.90;;;;;;;27.62;40.92;99112.63;5055082;28;20228;-86
2023/09/14 06:20:48;;;;;;;9.33;3.23;;;;;;;27.83;41.52;99115.34;5072456;28;20204;-86
2023/09/14 06:23:15;;;;;;;6.13;3.30;;;;;;;28.31;40.58;99119.16;5073408;28;20208;-86
2023/09/14 06:25:40;;;;;;;11.37;3.33;;;;;;;28.44;40.22;99125.50;5072967;28;20180;-86
2023/09/14 06:28:06;;;;;;;7.80;3.87;;;;;;;28.75;39.11;99129.75;5072579;28;20527;-86
2023/09/14 06:30:32;;;;;;;7.90;3.85;;;;;;;29.11;39.12;99130.38;5073117;28;20618;-86
2023/09/14 06:32:57;;;;;;;9.93;3.70;;;;;;;29.59;37.50;99123.16;5072660;28;20191;-86
2023/09/14 06:35:23;;;;;;;9.25;3.58;;;;;;;30.04;37.70;99124.34;5072788;28;20192;-86
2023/09/14 06:37:50;;;;;;;8.38;3.63;;;;;;;30.66;35.86;99127.53;5072568;28;20188;-86
2023/09/14 06:40:16;;;;;;;10.02;3.25;;;;;;;31.22;34.85;99125.19;5072718;28;20177;-86
2023/09/14 06:42:44;;;;;;;11.60;2.97;;;;;;;31.74;34.24;99118.75;5054792;28;20574;-87
2023/09/14 06:45:11;;;;;;;7.13;3.45;;;;;;;31.97;33.75;99124.47;5055834;28;20217;-87
2023/09/14 06:47:38;;;;;;;10.02;2.83;;;;;;;32.38;33.62;99125.91;5073638;28;20182;-87
2023/09/14 06:50:05;;;;;;;5.32;2.50;;;;;;;32.88;32.18;99127.56;5072873;28;20603;-88
2023/09/14 06:52:35;;;;;;;6.75;1.73;;;;;;;32.94;31.17;99121.22;5055208;28;20238;-88
2023/09/14 06:55:00;;;;;;;5.18;2.35;;;;;;;33.06;31.43;99130.34;5065331;28;20189;-89
2023/09/14 06:57:28;;;;;;;4.97;2.40;;;;;;;33.13;31.01;99133.81;5053147;28;20242;-88
2023/09/14 06:59:54;;;;;;;6.28;2.25;;;;;;;33.26;30.71;99141.81;5035124;28;20189;-88
2023/09/14 07:02:20;;;;;;;6.05;2.58;;;;;;;33.27;29.98;99132.63;5052849;28;20178;-88
2023/09/14 07:04:45;;;;;;;8.00;3.30;;;;;;;33.18;31.02;99131.25;5052753;28;20216;-89
2023/09/14 07:07:11;;;;;;;4.28;2.08;;;;;;;33.19;30.34;99132.91;5052625;28;20170;-88
2023/09/14 07:09:36;;;;;;;5.45;2.15;;;;;;;33.26;30.24;99130.94;5052834;28;20331;-88
2023/09/14 07:12:02;;;;;;;7.22;2.10;;;;;;;33.13;30.98;99136.53;5034973;28;20185;-88
2023/09/14 07:14:28;;;;;;;8.88;1.95;;;;;;;33.07;30.72;99142.06;5052996;28;20166;-89
2023/09/14 07:16:55;;;;;;;4.32;2.00;;;;;;;33.10;30.88;99136.97;5052713;28;20192;-88
2023/09/14 07:19:26;;;;;;;10.13;2.40;;;;;;;33.19;30.37;99130.19;5052941;28;20185;-88
2023/09/14 07:21:54;;;;;;;9.15;2.28;;;;;;;33.13;30.79;99136.53;5054196;28;20568;-88
2023/09/14 07:24:20;;;;;;;3.42;1.75;;;;;;;33.19;30.94;99143.78;5058528;28;20209;-88
2023/09/14 07:26:47;;;;;;;8.75;2.33;;;;;;;33.24;30.36;99135.78;5075941;28;20649;-89
2023/09/14 07:29:13;;;;;;;5.72;2.17;;;;;;;32.68;31.39;99135.91;5075868;28;20238;-88
2023/09/14 07:31:40;;;;;;;5.35;2.38;;;;;;;32.83;31.24;99138.28;5058081;28;20650;-89
2023/09/14 07:34:07;;;;;;;6.93;2.65;;;;;;;32.91;31.41;99137.16;5058133;28;20638;-88
2023/09/14 07:36:34;;;;;;;4.07;1.92;;;;;;;32.95;31.97;99141.06;5057990;28;20559;-88
2023/09/14 07:38:59;;;;;;;6.68;1.88;;;;;;;33.01;31.63;99132.03;5075760;28;20188;-89
2023/09/14 07:41:26;;;;;;;10.05;2.28;;;;;;;33.16;31.15;99133.38;5058332;28;20181;-89
2023/09/14 07:43:52;;;;;;;10.77;2.20;;;;;;;33.26;30.16;99133.66;5058101;28;20197;-88
2023/09/14 07:46:19;;;;;;;6.90;1.95;;;;;;;33.36;30.35;99136.69;5075572;28;20184;-88
2023/09/14 07:48:44;;;;;;;7.65;1.95;;;;;;;33.21;30.67;99127.25;5054085;28;20296;-88
2023/09/14 07:51:11;;;;;;;3.10;1.90;;;;;;;33.06;30.96;99124.91;5056228;28;20166;-88
2023/09/14 07:53:37;;;;;;;5.45;2.03;;;;;;;32.98;31.44;99127.88;5055718;28;20705;-88
2023/09/14 07:56:04;;;;;;;4.50;2.25;;;;;;;32.94;31.46;99125.84;5071740;28;20181;-88
2023/09/14 07:58:31;;;;;;;5.93;1.90;;;;;;;33.03;31.30;99117.19;5075346;28;20616;-88
2023/09/14 08:00:58;;;;;;;5.45;2.33;;;;;;;32.88;31.77;99115.88;5059068;28;20177;-88
2023/09/14 08:03:28;;;;;;;3.08;1.83;;;;;;;33.11;31.48;99122.34;5055443;28;20207;-88
2023/09/14 08:05:54;;;;;;;4.38;2.17;;;;;;;33.30;30.39;99113.16;5068169;28;20185;-88
2023/09/14 08:08:21;;;;;;;5.57;2.10;;;;;;;33.05;30.46;99111.53;5075667;28;20169;-88
2023/09/14 08:10:52;;;;;;;9.85;2.85;;;;;;;33.12;30.66;99112.31;5057764;28;20205;-89
2023/09/14 08:13:19;;;;;;;3.92;1.85;;;;;;;33.12;30.90;99107.72;5074864;28;20196;-88
2023/09/14 08:15:45;;;;;;;4.13;1.83;;;;;;;33.36;30.61;99109.50;5075167;28;20256;-88
2023/09/14 08:18:11;;;;;;;6.32;2.40;;;;;;;33.03;31.40;99109.03;5074712;28;20204;-88
2023/09/14 08:20:42;;;;;;;7.97;2.47;;;;;;;33.06;31.01;99103.19;5074717;28;20259;-88
2023/09/14 08:23:09;;;;;;;5.32;2.00;;;;;;;32.91;31.55;99105.41;5074890;28;20177;-88
2023/09/14 08:25:46;;;;;;;13.05;2.38;;;;;;;33.02;31.65;99101.91;5074850;28;20260;-89
2023/09/14 08:28:17;;;;;;;6.03;2.30;;;;;;;32.90;31.00;99103.75;5074614;28;20244;-88
2023/09/14 08:30:44;;;;;;;6.80;2.42;;;;;;;33.04;30.63;99099.88;5074710;28;20173;-88
2023/09/14 08:33:12;;;;;;;8.85;2.20;;;;;;;33.04;30.57;99099.00;5074257;28;20209;-87
2023/09/14 08:35:38;;;;;;;6.00;1.98;;;;;;;32.93;30.88;99099.75;5074489;28;20195;-88
2023/09/14 08:38:07;;;;;;;6.40;2.22;;;;;;;33.26;31.12;99101.06;5057236;28;20180;-88
2023/09/14 08:40:34;;;;;;;6.95;3.17;;;;;;;33.59;30.46;99091.72;5074466;28;20185;-89
2023/09/14 08:43:02;;;;;;;7.10;2.13;;;;;;;33.74;29.92;99090.25;5074386;28;20188;-88
2023/09/14 08:45:32;;;;;;;5.57;1.95;;;;;;;33.78;29.25;99079.75;5074217;28;20177;-88
2023/09/14 08:48:02;;;;;;;5.55;1.90;;;;;;;33.76;29.49;99081.84;5056807;28;20169;-87
2023/09/14 08:50:34;;;;;;;9.23;2.42;;;;;;;33.99;29.67;99074.59;5074338;28;20704;-88
2023/09/14 08:53:01;;;;;;;5.32;1.80;;;;;;;34.02;28.87;99070.56;5074003;28;20204;-88
2023/09/14 08:55:33;;;;;;;7.88;2.63;;;;;;;34.17;29.04;99072.91;5056516;28;20259;-87
2023/09/14 08:58:01;;;;;;;8.85;3.17;;;;;;;34.30;28.61;99069.97;5074777;28;20185;-87
2023/09/14 09:00:29;;;;;;;6.20;2.47;;;;;;;34.27;28.48;99067.69;5074075;28;20211;-88
2023/09/14 09:02:57;;;;;;;4.78;2.00;;;;;;;34.20;28.15;99062.34;5073764;28;20208;-88
2023/09/14 09:05:25;;;;;;;7.85;2.70;;;;;;;34.14;29.15;99060.59;5056373;28;20205;-88
2023/09/14 09:07:54;;;;;;;4.47;1.70;;;;;;;34.18;28.91;99060.94;5074496;28;20691;-88
2023/09/14 09:10:30;;;;;;;5.68;2.00;;;;;;;34.46;27.81;99051.03;5055741;28;20189;-87
2023/09/14 09:13:02;;;;;;;4.68;1.75;;;;;;;34.53;27.72;99057.19;5073935;28;20164;-87
2023/09/14 09:15:30;;;;;;;9.15;2.58;;;;;;;34.32;28.50;99048.78;5073844;28;20219;-87
2023/09/14 09:18:09;;;;;;;4.00;2.00;;;;;;;34.42;28.46;99049.84;5056093;28;20185;-87
2023/09/14 09:20:40;;;;;;;5.70;2.28;;;;;;;34.37;28.97;99047.00;5056554;28;20188;-87
2023/09/14 09:23:06;;;;;;;6.63;2.28;;;;;;;34.11;29.19;99047.44;5073862;28;20203;-88
2023/09/14 09:25:52;;;;;;;12.35;2.72;;;;;;;34.21;28.47;99047.69;5073641;28;20169;-87
2023/09/14 09:28:19;;;;;;;5.13;1.90;;;;;;;34.36;29.09;99053.50;5056267;28;20522;-87
2023/09/14 09:30:53;;;;;;;4.72;2.28;;;;;;;34.60;28.44;99046.22;5074118;28;20676;-87
2023/09/14 09:33:36;;;;;;;7.45;2.25;;;;;;;34.74;27.72;99038.63;5073544;28;20177;-87
2023/09/14 09:36:17;;;;;;;12.65;2.53;;;;;;;34.84;28.30;99036.97;5074022;28;20229;-88
2023/09/14 09:38:45;;;;;;;9.57;2.40;;;;;;;34.87;27.57;99036.50;5074364;28;20656;-87
2023/09/14 09:41:12;;;;;;;7.28;2.53;;;;;;;35.05;27.72;99032.81;5073131;28;20191;-87
2023/09/14 09:43:41;;;;;;;8.90;1.83;;;;;;;34.84;27.56;99022.50;5055549;28;20193;-88
2023/09/14 09:46:16;;;;;;;7.88;2.33;;;;;;;34.91;27.42;99023.19;5072974;28;20623;-87
2023/09/14 09:48:42;;;;;;;10.18;2.33;;;;;;;35.06;27.92;99023.56;5073165;28;20180;-88
2023/09/14 09:51:08;;;;;;;6.30;2.30;;;;;;;35.18;27.61;99017.00;5073102;28;20237;-87
2023/09/14 09:53:35;;;;;;;5.55;2.20;;;;;;;35.41;26.94;99018.81;5073590;28;20249;-87
2023/09/14 09:56:02;;;;;;;7.43;2.40;;;;;;;35.41;28.24;99020.72;5073381;28;20602;-87
2023/09/14 09:58:38;;;;;;;10.02;2.10;;;;;;;35.41;27.12;99013.38;5073227;28;20196;-88
2023/09/14 10:01:04;;;;;;;9.43;2.30;;;;;;;35.26;27.96;99010.34;5072804;28;20183;-87
2023/09/14 10:03:30;;;;;;;3.80;1.88;;;;;;;35.32;27.51;99005.81;5072968;28;20193;-87
2023/09/14 10:05:57;;;;;;;5.07;2.10;;;;;;;35.44;27.43;98999.25;5072980;28;20630;-87
2023/09/14 10:08:24;;;;;;;4.60;2.42;;;;;;;35.49;27.65;99002.06;5073129;28;20252;-87
2023/09/14 10:10:51;;;;;;;6.15;1.98;;;;;;;35.58;27.34;98999.81;5072654;28;20278;-87
2023/09/14 10:13:23;;;;;;;8.65;2.67;;;;;;;35.37;27.82;98990.41;5072869;28;20184;-87
2023/09/14 10:15:56;;;;;;;8.43;2.15;;;;;;;35.66;26.83;98978.44;5072892;28;20177;-87
2023/09/14 10:18:28;;;;;;;5.68;1.98;;;;;;;35.72;27.19;98977.44;5073131;28;20174;-87
2023/09/14 10:20:55;;;;;;;6.55;2.15;;;;;;;35.49;27.53;98979.44;5073004;28;20184;-87
2023/09/14 10:23:23;;;;;;;8.50;2.42;;;;;;;35.75;27.42;98973.38;5072773;28;20177;-87
2023/09/14 10:25:50;;;;;;;6.18;1.55;;;;;;;35.89;26.45;98977.47;5072866;28;20184;-88
2023/09/14 10:28:20;;;;;;;6.25;1.70;;;;;;;36.10;26.63;98967.72;5073078;28;20184;-87
2023/09/14 10:30:47;;;;;;;5.10;2.15;;;;;;;36.20;26.93;98965.16;5055135;28;20176;-87
2023/09/14 10:33:14;;;;;;;6.32;1.90;;;;;;;36.38;26.62;98967.59;5073277;28;20165;-86
2023/09/14 10:35:42;;;;;;;5.55;2.08;;;;;;;36.24;26.33;98972.59;5072828;28;20207;-86
2023/09/14 10:38:10;;;;;;;4.25;1.88;;;;;;;36.42;25.83;98968.78;5072819;28;20183;-87
2023/09/14 10:40:37;;;;;;;5.68;2.13;;;;;;;36.76;26.08;98964.91;5072610;28;20575;-88
2023/09/14 10:43:04;;;;;;;6.68;1.90;;;;;;;36.66;25.25;98972.94;5073132;28;20177;-87
2023/09/14 10:45:36;;;;;;;6.80;2.03;;;;;;;36.76;25.04;98959.44;5072645;28;20673;-88
2023/09/14 10:48:11;;;;;;;4.10;2.05;;;;;;;36.96;25.40;98961.63;5073051;28;20153;-87
2023/09/14 10:50:38;;;;;;;10.02;2.53;;;;;;;36.87;25.58;98953.00;5072957;28;20257;-87
2023/09/14 10:53:05;;;;;;;5.95;2.20;;;;;;;37.27;25.30;98955.41;5055103;28;20208;-87
2023/09/14 10:55:31;;;;;;;3.78;1.88;;;;;;;37.46;25.26;98954.00;5070774;28;20169;-87
2023/09/14 10:57:58;;;;;;;4.32;1.80;;;;;;;37.36;25.31;98944.84;5055479;28;20246;-87
2023/09/14 11:00:36;;;;;;;7.38;2.47;;;;;;;37.33;24.70;98945.34;5056449;28;20639;-87
2023/09/14 11:03:03;;;;;;;4.45;2.10;;;;;;;37.40;25.63;98935.03;5065664;28;20509;-88
2023/09/14 11:05:49;;;;;;;6.03;2.53;;;;;;;37.43;25.09;98931.81;5076264;28;20265;-87
2023/09/14 11:08:18;;;;;;;5.35;2.05;;;;;;;37.39;25.62;98931.50;5076202;28;20242;-87
2023/09/14 11:10:59;;;;;;;9.27;2.42;;;;;;;37.39;24.74;98926.03;5058950;28;20263;-87
2023/09/14 11:13:30;;;;;;;9.43;1.83;;;;;;;37.53;25.52;98927.25;5076169;28;20173;-88
2023/09/14 11:16:14;;;;;;;8.57;1.95;;;;;;;37.66;24.43;98925.19;5059392;28;20181;-87
2023/09/14 11:18:45;;;;;;;4.70;1.85;;;;;;;37.70;24.49;98927.16;5058507;28;20168;-88
2023/09/14 11:21:36;;;;;;;4.90;1.50;;;;;;;37.95;24.68;98918.31;5058859;28;20181;-87
2023/09/14 11:24:04;;;;;;;6.70;2.20;;;;;;;38.11;24.17;98915.44;5076042;28;20224;-87
2023/09/14 11:26:37;;;;;;;5.53;2.05;;;;;;;38.30;22.85;98915.84;5075793;28;20177;-86
2023/09/14 11:29:07;;;;;;;4.85;1.92;;;;;;;37.57;23.37;98913.91;5058352;28;20571;-87
2023/09/14 11:31:34;;;;;;;7.75;2.10;;;;;;;37.79;24.72;98917.34;5058183;28;20579;-87
2023/09/14 11:34:12;;;;;;;8.55;2.22;;;;;;;38.12;24.70;98908.91;5058397;28;20586;-87
2023/09/14 11:36:39;;;;;;;2.92;1.75;;;;;;;38.24;23.91;98903.19;5059101;28;20265;-86